createdAt,value
2023-04-23T00:01:35.716Z,1.70
2023-04-23T00:04:39.153Z,1.40
2023-04-23T00:07:42.356Z,1.30
2023-04-23T00:10:44.731Z,1.50
2023-04-23T00:13:49.549Z,1.30
2023-04-23T00:16:53.457Z,1.40
2023-04-23T00:19:55.365Z,1.00
2023-04-23T00:22:57.445Z,1.57
2023-04-23T00:25:59.378Z,1.07
2023-04-23T00:29:01.497Z,1.20
2023-04-23T00:32:03.739Z,1.30
2023-04-23T00:35:06.599Z,1.50
2023-04-23T00:38:08.745Z,0.90
2023-04-23T00:41:11.506Z,1.20
2023-04-23T00:44:13.426Z,1.20
2023-04-23T00:47:15.562Z,0.90
2023-04-23T00:50:17.526Z,1.00
2023-04-23T00:53:20.049Z,1.20
2023-04-23T00:56:24.394Z,1.40
2023-04-23T00:59:28.040Z,1.37
2023-04-23T01:02:32.420Z,1.13
2023-04-23T01:05:34.594Z,1.17
2023-04-23T01:08:37.223Z,1.17
2023-04-23T01:11:40.972Z,1.40
2023-04-23T01:14:44.634Z,1.50
2023-04-23T01:17:46.726Z,1.30
2023-04-23T01:20:49.980Z,1.53
2023-04-23T01:23:52.431Z,1.50
2023-04-23T01:26:54.349Z,1.37
2023-04-23T01:29:57.264Z,1.20
2023-04-23T01:32:59.772Z,1.10
2023-04-23T01:36:03.044Z,1.20
2023-04-23T01:39:05.888Z,1.50
2023-04-23T01:42:09.063Z,1.10
2023-04-23T01:45:11.096Z,1.30
2023-04-23T01:48:13.080Z,1.10
2023-04-23T01:51:15.648Z,1.23
2023-04-23T01:54:18.777Z,1.30
2023-04-23T01:57:26.725Z,1.10
2023-04-23T02:00:29.044Z,2.03
2023-04-23T02:03:32.440Z,1.57
2023-04-23T02:06:36.802Z,1.57
2023-04-23T02:09:38.831Z,1.33
2023-04-23T02:12:41.045Z,1.60
2023-04-23T02:15:43.448Z,1.60
2023-04-23T02:18:45.411Z,1.40
2023-04-23T02:21:47.918Z,1.90
2023-04-23T02:24:49.912Z,2.10
2023-04-23T02:27:52.159Z,1.40
2023-04-23T02:30:54.492Z,1.23
2023-04-23T02:33:56.690Z,0.97
2023-04-23T02:36:59.330Z,1.40
2023-04-23T02:40:01.628Z,1.30
2023-04-23T02:43:03.810Z,1.60
2023-04-23T02:46:09.720Z,1.37
2023-04-23T02:49:12.479Z,1.50
2023-04-23T02:52:14.464Z,1.63
2023-04-23T02:55:17.101Z,1.87
2023-04-23T02:58:19.040Z,1.67
2023-04-23T03:01:21.474Z,1.73
2023-04-23T03:04:25.108Z,1.50
2023-04-23T03:07:27.201Z,1.53
2023-04-23T03:10:29.119Z,1.60
2023-04-23T03:13:31.140Z,1.37
2023-04-23T03:16:33.145Z,1.80
2023-04-23T03:19:35.619Z,2.00
2023-04-23T03:22:37.719Z,1.80
2023-04-23T03:25:40.283Z,2.07
2023-04-23T03:28:42.303Z,2.07
2023-04-23T03:31:45.983Z,1.70
2023-04-23T03:34:47.941Z,1.40
2023-04-23T03:37:50.466Z,1.40
2023-04-23T03:40:52.546Z,1.27
2023-04-23T03:43:54.440Z,1.20
2023-04-23T03:46:56.357Z,1.50
2023-04-23T03:49:58.368Z,1.60
2023-04-23T03:53:01.590Z,1.60
2023-04-23T03:56:03.484Z,1.70
2023-04-23T03:59:09.027Z,1.33
2023-04-23T04:02:11.825Z,1.70
2023-04-23T04:05:14.095Z,1.80
2023-04-23T04:08:16.217Z,2.07
2023-04-23T04:11:18.047Z,1.50
2023-04-23T04:14:21.206Z,1.47
2023-04-23T04:17:23.106Z,1.20
2023-04-23T04:20:25.463Z,1.70
2023-04-23T04:23:27.862Z,1.60
2023-04-23T04:26:29.912Z,2.23
2023-04-23T04:29:32.419Z,2.30
2023-04-23T04:32:34.725Z,1.37
2023-04-23T04:35:37.339Z,1.53
2023-04-23T04:38:40.104Z,1.53
2023-04-23T04:41:43.158Z,1.70
2023-04-23T04:44:45.170Z,1.70
2023-04-23T04:47:47.097Z,2.83
2023-04-23T04:50:49.580Z,2.07
2023-04-23T04:53:51.536Z,2.10
2023-04-23T04:56:53.518Z,1.60
2023-04-23T04:59:55.730Z,1.67
2023-04-23T05:02:58.024Z,2.10
2023-04-23T05:06:00.048Z,1.73
2023-04-23T05:09:02.072Z,1.93
2023-04-23T05:12:07.464Z,1.97
2023-04-23T05:15:13.469Z,2.07
2023-04-23T05:18:15.483Z,2.00
2023-04-23T05:21:17.572Z,2.50
2023-04-23T05:24:19.505Z,1.90
2023-04-23T05:27:22.129Z,2.07
2023-04-23T05:30:24.528Z,2.00
2023-04-23T05:33:33.456Z,2.00
2023-04-23T05:36:38.471Z,2.20
2023-04-23T05:39:41.063Z,1.40
2023-04-23T05:42:43.927Z,1.70
2023-04-23T05:45:46.401Z,2.17
2023-04-23T05:48:48.325Z,1.50
2023-04-23T05:51:52.387Z,1.87
2023-04-23T05:54:55.118Z,2.23
2023-04-23T05:57:57.892Z,2.10
2023-04-23T06:01:00.196Z,1.93
2023-04-23T06:04:02.404Z,1.90
2023-04-23T06:07:04.887Z,1.83
2023-04-23T06:10:08.403Z,2.03
2023-04-23T06:13:11.469Z,1.50
2023-04-23T06:16:13.446Z,1.37
2023-04-23T06:19:15.753Z,1.40
2023-04-23T06:22:17.959Z,1.27
2023-04-23T06:25:20.244Z,1.70
2023-04-23T06:28:22.460Z,1.40
2023-04-23T06:31:24.427Z,1.57
2023-04-23T06:34:26.462Z,1.53
2023-04-23T06:37:29.701Z,1.97
2023-04-23T06:40:34.473Z,1.47
2023-04-23T06:43:36.522Z,1.40
2023-04-23T06:46:39.210Z,1.60
2023-04-23T06:49:41.493Z,1.53
2023-04-23T06:52:43.876Z,1.23
2023-04-23T06:55:45.989Z,1.50
2023-04-23T06:58:48.320Z,1.70
2023-04-23T07:01:50.215Z,1.77
2023-04-23T07:04:52.198Z,1.50
2023-04-23T07:07:54.157Z,1.30
2023-04-23T07:10:56.324Z,1.23
2023-04-23T07:13:58.877Z,1.67
2023-04-23T07:17:01.000Z,1.20
2023-04-23T07:20:06.947Z,1.70
2023-04-23T07:23:09.268Z,1.47
2023-04-23T07:26:12.737Z,1.63
2023-04-23T07:29:16.439Z,1.97
2023-04-23T07:32:18.548Z,1.70
2023-04-23T07:35:21.830Z,1.70
2023-04-23T07:38:26.563Z,1.90
2023-04-23T07:41:32.947Z,1.70
2023-04-23T07:44:35.252Z,1.50
2023-04-23T07:47:37.353Z,1.50
2023-04-23T07:50:39.337Z,1.70
2023-04-23T07:53:41.600Z,1.87
2023-04-23T07:56:43.645Z,1.60
2023-04-23T07:59:45.565Z,1.57
2023-04-23T08:02:48.277Z,1.70
2023-04-23T08:05:50.338Z,1.50
2023-04-23T08:08:52.923Z,1.90
2023-04-23T08:11:55.903Z,1.60
2023-04-23T08:14:58.323Z,1.60
2023-04-23T08:18:01.313Z,1.63
2023-04-23T08:21:03.209Z,1.20
2023-04-23T08:24:07.978Z,1.67
2023-04-23T08:27:11.285Z,1.60
2023-04-23T08:30:13.966Z,1.50
2023-04-23T08:33:15.923Z,1.73
2023-04-23T08:36:17.856Z,1.40
2023-04-23T08:39:20.441Z,1.80
2023-04-23T08:42:39.454Z,1.80
2023-04-23T08:45:44.295Z,1.90
2023-04-23T08:48:48.301Z,1.40
2023-04-23T08:51:54.639Z,2.00
2023-04-23T08:55:01.999Z,2.17
2023-04-23T08:58:07.110Z,1.80
2023-04-23T09:01:09.469Z,1.85
2023-04-23T09:04:11.579Z,2.00
2023-04-23T09:07:14.152Z,2.15
2023-04-23T09:10:18.621Z,1.77
2023-04-23T09:13:21.217Z,2.40
2023-04-23T09:16:23.208Z,1.80
2023-04-23T09:19:30.690Z,2.10
2023-04-23T09:22:46.017Z,2.23
2023-04-23T09:25:48.957Z,2.47
2023-04-23T09:28:53.815Z,2.20
2023-04-23T09:32:04.829Z,2.77
2023-04-23T09:35:12.418Z,2.60
2023-04-23T09:38:16.380Z,2.27
2023-04-23T09:41:26.143Z,2.53
2023-04-23T09:44:33.128Z,2.53
2023-04-23T09:47:39.283Z,3.70
2023-04-23T09:50:41.476Z,2.53
2023-04-23T09:53:44.424Z,2.57
2023-04-23T09:56:51.291Z,2.85
2023-04-23T10:00:00.444Z,3.03
2023-04-23T10:03:12.862Z,2.65
2023-04-23T10:06:37.022Z,2.77
2023-04-23T10:09:42.881Z,3.60
2023-04-23T10:12:54.256Z,2.78
2023-04-23T10:16:04.721Z,2.70
2023-04-23T10:19:15.508Z,2.92
2023-04-23T10:22:20.640Z,3.13
2023-04-23T10:25:23.430Z,2.78
2023-04-23T10:28:29.867Z,3.30
2023-04-23T10:31:33.278Z,3.05
2023-04-23T10:34:35.623Z,3.13
2023-04-23T10:37:37.984Z,3.15
2023-04-23T10:40:40.494Z,2.90
2023-04-23T10:43:42.454Z,3.10
2023-04-23T10:46:58.138Z,3.30
2023-04-23T10:50:24.364Z,3.07
2023-04-23T10:53:26.839Z,3.30
2023-04-23T10:56:28.705Z,3.40
2023-04-23T10:59:32.358Z,3.30
2023-04-23T11:02:47.350Z,3.17
2023-04-23T11:05:50.093Z,2.95
2023-04-23T11:08:59.558Z,3.15
2023-04-23T11:12:03.007Z,3.17
2023-04-23T11:15:12.787Z,3.20
2023-04-23T11:18:14.851Z,3.20
2023-04-23T11:21:16.737Z,3.10
2023-04-23T11:24:18.869Z,3.43
2023-04-23T11:27:21.325Z,3.00
2023-04-23T11:30:25.405Z,3.28
2023-04-23T11:33:27.609Z,3.20
2023-04-23T11:36:29.985Z,3.28
2023-04-23T11:39:32.353Z,3.10
2023-04-23T11:42:42.666Z,3.58
2023-04-23T11:45:45.107Z,3.10
2023-04-23T11:48:49.051Z,4.10
2023-04-23T11:51:51.406Z,4.00
2023-04-23T11:54:53.296Z,3.78
2023-04-23T11:57:55.378Z,3.58
2023-04-23T12:01:00.906Z,4.22
2023-04-23T12:04:36.947Z,3.28
2023-04-23T12:07:40.025Z,3.70
2023-04-23T12:10:55.838Z,3.60
2023-04-23T12:13:58.341Z,3.05
2023-04-23T12:17:10.444Z,3.75
2023-04-23T12:20:18.402Z,4.32
2023-04-23T12:23:26.827Z,3.83
2023-04-23T12:26:29.861Z,4.40
2023-04-23T12:29:32.425Z,3.72
2023-04-23T12:32:35.457Z,3.85
2023-04-23T12:35:54.610Z,3.75
2023-04-23T12:39:23.771Z,3.30
2023-04-23T12:42:26.298Z,3.50
2023-04-23T12:45:37.552Z,3.72
2023-04-23T12:48:40.350Z,3.90
2023-04-23T12:51:42.320Z,3.53
2023-04-23T12:54:45.111Z,3.38
2023-04-23T12:57:47.387Z,3.38
2023-04-23T13:00:49.472Z,3.88
2023-04-23T13:03:51.745Z,3.63
2023-04-23T13:06:54.776Z,4.05
2023-04-23T13:09:57.517Z,3.92
2023-04-23T13:13:00.168Z,3.28
2023-04-23T13:16:02.127Z,3.65
2023-04-23T13:19:05.374Z,3.90
2023-04-23T13:22:07.365Z,4.00
2023-04-23T13:25:09.737Z,4.10
2023-04-23T13:28:11.655Z,3.97
2023-04-23T13:31:14.385Z,3.65
2023-04-23T13:34:17.267Z,3.60
2023-04-23T13:37:19.392Z,3.67
2023-04-23T13:40:21.356Z,3.50
2023-04-23T13:43:24.431Z,3.80
2023-04-23T13:46:26.783Z,3.55
2023-04-23T13:49:28.733Z,3.63
2023-04-23T13:52:32.124Z,3.35
2023-04-23T13:55:34.083Z,3.83
2023-04-23T13:58:36.110Z,3.60
2023-04-23T14:01:38.256Z,3.88
2023-04-23T14:04:43.691Z,3.70
2023-04-23T14:07:45.827Z,3.25
2023-04-23T14:10:48.049Z,3.95
2023-04-23T14:13:50.232Z,3.63
2023-04-23T14:16:52.073Z,3.28
2023-04-23T14:19:53.994Z,3.22
2023-04-23T14:22:59.010Z,2.97
2023-04-23T14:26:05.713Z,3.00
2023-04-23T14:29:20.373Z,3.80
2023-04-23T14:32:23.514Z,3.70
2023-04-23T14:35:43.407Z,3.22
2023-04-23T14:38:46.107Z,2.88
2023-04-23T14:41:47.964Z,3.40
2023-04-23T14:44:50.534Z,2.90
2023-04-23T14:47:52.506Z,2.83
2023-04-23T14:50:54.536Z,3.25
2023-04-23T14:53:56.941Z,2.88
2023-04-23T14:56:59.370Z,2.75
2023-04-23T15:00:01.717Z,2.75
2023-04-23T15:03:08.716Z,2.50
2023-04-23T15:06:10.800Z,2.55
2023-04-23T15:09:15.466Z,2.63
2023-04-23T15:12:48.453Z,2.45
2023-04-23T15:15:53.753Z,2.40
2023-04-23T15:19:00.028Z,2.20
2023-04-23T15:22:04.605Z,2.58
2023-04-23T15:25:07.522Z,2.42
2023-04-23T15:28:09.411Z,2.30
2023-04-23T15:31:11.502Z,2.50
2023-04-23T15:34:14.159Z,2.05
2023-04-23T15:37:16.576Z,2.17
2023-04-23T15:40:19.419Z,2.65
2023-04-23T15:43:21.241Z,2.65
2023-04-23T15:46:23.405Z,2.40
2023-04-23T15:49:25.262Z,2.67
2023-04-23T15:52:27.631Z,2.50
2023-04-23T15:55:29.822Z,2.60
2023-04-23T15:58:31.814Z,2.65
2023-04-23T16:01:33.803Z,2.65
2023-04-23T16:04:36.591Z,2.40
2023-04-23T16:07:39.086Z,2.38
2023-04-23T16:10:41.341Z,2.15
2023-04-23T16:13:43.369Z,2.30
2023-04-23T16:16:45.351Z,1.92
2023-04-23T16:19:47.435Z,2.53
2023-04-23T16:22:49.711Z,2.60
2023-04-23T16:25:51.501Z,2.10
2023-04-23T16:29:05.541Z,2.78
2023-04-23T16:32:13.631Z,2.67
2023-04-23T16:35:16.411Z,2.88
2023-04-23T16:38:18.236Z,2.65
2023-04-23T16:41:20.589Z,2.30
2023-04-23T16:44:22.477Z,2.60
2023-04-23T16:47:24.457Z,2.47
2023-04-23T16:50:26.288Z,2.80
2023-04-23T16:53:28.891Z,2.75
2023-04-23T16:56:31.704Z,2.95
2023-04-23T16:59:35.173Z,2.55
2023-04-23T17:02:38.498Z,2.90
2023-04-23T17:05:41.183Z,2.80
2023-04-23T17:08:43.077Z,2.58
2023-04-23T17:11:45.468Z,3.00
2023-04-23T17:14:47.342Z,3.25
2023-04-23T17:17:49.510Z,2.63
2023-04-23T17:20:51.448Z,2.77
2023-04-23T17:23:53.773Z,3.65
2023-04-23T17:26:57.077Z,4.00
2023-04-23T17:29:58.989Z,3.77
2023-04-23T17:33:00.951Z,3.30
2023-04-23T17:36:04.188Z,2.70
2023-04-23T17:39:06.156Z,2.73
2023-04-23T17:42:08.431Z,4.20
2023-04-23T17:45:12.121Z,2.90
2023-04-23T17:48:15.683Z,3.10
2023-04-23T17:51:18.504Z,2.90
2023-04-23T17:54:20.851Z,2.93
2023-04-23T17:57:22.781Z,2.90
2023-04-23T18:00:25.338Z,2.83
2023-04-23T18:03:28.297Z,2.60
2023-04-23T18:06:30.580Z,3.07
2023-04-23T18:09:32.473Z,3.03
2023-04-23T18:12:34.634Z,2.63
2023-04-23T18:15:36.638Z,3.13
2023-04-23T18:18:39.492Z,2.90
2023-04-23T18:21:41.457Z,2.53
2023-04-23T18:24:44.716Z,2.73
2023-04-23T18:27:46.626Z,2.70
2023-04-23T18:30:48.707Z,3.20
2023-04-23T18:33:57.262Z,2.80
2023-04-23T18:37:02.997Z,2.50
2023-04-23T18:40:06.272Z,2.27
2023-04-23T18:43:08.162Z,2.57
2023-04-23T18:46:10.107Z,3.13
2023-04-23T18:49:30.036Z,2.60
2023-04-23T18:52:31.952Z,2.87
2023-04-23T18:55:33.852Z,2.90
2023-04-23T18:58:38.448Z,2.87
2023-04-23T19:01:41.256Z,2.53
2023-04-23T19:04:43.393Z,2.77
2023-04-23T19:07:48.594Z,2.50
2023-04-23T19:10:50.475Z,2.80
2023-04-23T19:13:53.395Z,2.80
2023-04-23T19:16:55.386Z,2.40
2023-04-23T19:19:57.485Z,2.70
2023-04-23T19:22:59.343Z,2.53
2023-04-23T19:26:03.931Z,2.60
2023-04-23T19:29:06.295Z,2.90
2023-04-23T19:32:08.484Z,2.87
2023-04-23T19:35:12.043Z,3.10
2023-04-23T19:38:13.965Z,2.97
2023-04-23T19:41:15.978Z,3.00
2023-04-23T19:44:18.280Z,3.83
2023-04-23T19:47:20.200Z,3.70
2023-04-23T19:50:22.324Z,3.93
2023-04-23T19:53:24.512Z,4.60
2023-04-23T19:56:27.239Z,3.07
2023-04-23T19:59:29.083Z,3.50
2023-04-23T20:02:31.192Z,2.60
2023-04-23T20:05:33.503Z,3.07
2023-04-23T20:09:04.122Z,3.03
2023-04-23T20:12:06.356Z,2.50
2023-04-23T20:15:09.752Z,2.33
2023-04-23T20:18:11.947Z,2.60
2023-04-23T20:21:14.188Z,2.47
2023-04-23T20:24:16.395Z,2.00
2023-04-23T20:27:18.392Z,2.20
2023-04-23T20:30:20.213Z,2.27
2023-04-23T20:33:22.952Z,1.87
2023-04-23T20:36:28.933Z,1.50
2023-04-23T20:39:30.833Z,1.10
2023-04-23T20:42:34.091Z,1.43
2023-04-23T20:45:36.417Z,1.80
2023-04-23T20:48:39.785Z,1.57
2023-04-23T20:51:41.648Z,1.60
2023-04-23T20:54:43.583Z,1.80
2023-04-23T20:57:45.930Z,2.10
2023-04-23T21:00:48.889Z,1.93
2023-04-23T21:03:52.234Z,1.70
2023-04-23T21:06:55.025Z,1.87
2023-04-23T21:09:57.232Z,1.90
2023-04-23T21:13:00.607Z,2.00
2023-04-23T21:16:02.878Z,2.13
2023-04-23T21:19:06.078Z,1.30
2023-04-23T21:22:07.944Z,0.93
2023-04-23T21:25:10.250Z,1.30
2023-04-23T21:28:12.549Z,1.50
2023-04-23T21:31:21.993Z,1.60
2023-04-23T21:34:23.813Z,1.23
2023-04-23T21:37:25.846Z,1.13
2023-04-23T21:40:27.809Z,1.13
2023-04-23T21:43:30.120Z,1.93
2023-04-23T21:46:32.486Z,2.43
2023-04-23T21:49:34.500Z,2.37
2023-04-23T21:52:39.404Z,2.60
2023-04-23T21:55:41.399Z,2.80
2023-04-23T21:58:43.961Z,2.20
2023-04-23T22:01:45.868Z,1.57
2023-04-23T22:04:47.947Z,1.67
2023-04-23T22:07:54.972Z,1.57
2023-04-23T22:10:57.569Z,1.63
2023-04-23T22:14:00.676Z,1.70
2023-04-23T22:17:03.152Z,1.50
2023-04-23T22:20:08.023Z,1.67
2023-04-23T22:23:09.967Z,1.60
2023-04-23T22:26:12.349Z,2.00
2023-04-23T22:29:14.375Z,1.37
2023-04-23T22:32:16.453Z,1.67
2023-04-23T22:35:18.388Z,1.50
2023-04-23T22:38:20.279Z,1.60
2023-04-23T22:41:22.084Z,1.80
2023-04-23T22:44:23.981Z,1.60
2023-04-23T22:47:25.830Z,1.27
2023-04-23T22:50:27.716Z,1.30
2023-04-23T22:53:29.669Z,1.13
2023-04-23T22:56:31.602Z,1.30
2023-04-23T22:59:33.499Z,1.33
2023-04-23T23:02:35.558Z,1.10
2023-04-23T23:05:37.505Z,0.93
2023-04-23T23:08:39.471Z,1.60
2023-04-23T23:11:41.707Z,1.30
2023-04-23T23:14:43.833Z,1.10
2023-04-23T23:17:46.077Z,1.17
2023-04-23T23:20:48.315Z,1.40
2023-04-23T23:23:50.121Z,1.60
2023-04-23T23:26:52.058Z,1.10
2023-04-23T23:29:53.937Z,1.30
2023-04-23T23:32:57.402Z,1.30
2023-04-23T23:35:59.290Z,1.17
2023-04-23T23:39:01.484Z,1.03
2023-04-23T23:42:03.391Z,1.20
2023-04-23T23:45:05.958Z,1.63
2023-04-23T23:48:07.957Z,1.43
2023-04-23T23:51:10.221Z,1.10
2023-04-23T23:54:12.072Z,0.90
2023-04-23T23:57:14.382Z,1.10
